Latest Weather Observations for Parawa West

IDS60901

Issued at 11:35 am CDT Saturday 29 November 2014 (issued every 10 minutes, with the page automatically refreshed every 10 minutes)

About weather observations | Map of Adelaide area stations | Latest observations for Adelaide area | Other Formats
Station Details ID: 023875 Name: SECOND VALLEY FOREST AWS Lat: -35.57 Lon: 138.29 Height: 341.0 m
Data from the previous 72 hours. | See also: Recent months at Parawa West
Date/Time
CDT
Tmp

°C
App
Tmp
°C
Dew
Point
°C
Rel
Hum
%
Delta-T

°C
Wind Press
QNH
hPa
Press
MSL
hPa
Rain
since
9 am
mm
Dir
 
Spd
km/h
Gust
km/h
Spd
kts
Gust
kts
29/11:30am 29.1 25.0 -3.2 12 14.7 N 9 22 5 12 1011.9 1011.3 0.0
29/11:00am 28.5 24.8 -2.6 13 14.3 N 7 15 4 8 1012.2 1011.6 0.0
29/10:30am 28.1 24.3 -0.9 15 13.7 NNW 9 17 5 9 1012.5 1011.9 0.0
29/10:00am 27.7 24.5 0.5 17 13.1 N 7 15 4 8 1012.6 1012.0 0.0
29/09:30am 26.8 23.8 0.5 18 12.6 NNE 6 11 3 6 1012.8 1012.3 0.0
29/09:00am 26.3 23.2 1.6 20 12.0 NE 7 11 4 6 1012.9 1012.4 0.0
29/08:30am 24.8 21.4 1.7 22 11.1 NE 9 13 5 7 1013.1 1012.6 0.0
29/08:00am 22.9 19.9 1.9 25 10.0 NE 7 11 4 6 1013.1 1012.6 0.0
29/07:30am 22.1 18.3 1.7 26 9.6 NE 11 19 6 10 1013.2 1012.7 0.0
29/07:00am 21.3 16.3 1.6 27 9.2 ENE 17 22 9 12 1013.1 1012.6 0.0
29/06:30am 20.1 14.3 2.5 31 8.3 ENE 22 26 12 14 1012.9 1012.4 0.0
29/06:00am 18.9 13.9 3.5 36 7.4 ENE 19 26 10 14 1012.9 1012.4 0.0
29/05:30am 18.2 13.7 4.4 40 6.7 ENE 17 22 9 12 1012.9 1012.4 0.0
29/05:00am 18.2 13.5 5.1 42 6.4 ENE 19 24 10 13 1012.8 1012.3 0.0
29/04:30am 17.6 14.0 6.8 49 5.5 ENE 15 19 8 10 1013.0 1012.5 0.0
29/04:00am 15.9 13.8 8.2 60 4.0 E 9 17 5 9 1013.1 1012.6 0.0
29/03:30am 14.7 12.4 9.1 69 2.9 E 11 15 6 8 1013.3 1012.8 0.0
29/03:00am 16.1 13.1 9.3 64 3.6 E 15 20 8 11 1013.7 1013.2 0.0
29/02:30am 16.3 12.2 7.8 57 4.3 E 19 22 10 12 1014.2 1013.6 0.0
29/02:00am 15.6 10.8 5.8 52 4.8 E 20 30 11 16 1014.5 1013.9 0.0
29/01:30am 14.9 11.5 7.7 62 3.6 E 15 19 8 10 1015.0 1014.4 0.0
29/01:00am 15.1 11.3 9.2 68 3.1 E 19 26 10 14 1015.2 1014.7 0.0
29/12:30am 14.6 10.7 8.5 67 3.1 ESE 19 24 10 13 1015.6 1015.1 0.0
29/12:00am 14.2 10.6 9.8 75 2.3 ESE 19 24 10 13 1016.1 1015.6 0.0
 
Date/Time
CDT
Tmp

°C
App
Tmp
°C
Dew
Point
°C
Rel
Hum
%
Delta-T

°C
Wind Press
QNH
hPa
Press
MSL
hPa
Rain
since
9 am
mm
Dir
 
Spd
km/h
Gust
km/h
Spd
kts
Gust
kts
28/11:30pm 13.6 10.7 9.6 77 2.1 SE 15 20 8 11 1016.5 1016.0 0.0
28/11:00pm 13.0 9.8 11.2 89 1.0 SE 19 22 10 12 1016.7 1016.2 0.0
28/10:30pm 12.7 10.0 11.6 93 0.6 SE 17 19 9 10 1017.0 1016.5 0.0
28/10:00pm 13.3 10.8 11.0 86 1.2 SE 15 20 8 11 1017.0 1016.5 0.0
28/09:30pm 13.7 11.4 11.8 88 1.0 SE 15 20 8 11 1016.9 1016.4 0.0
28/09:00pm 13.7 11.5 12.1 90 0.9 SE 15 20 8 11 1016.9 1016.4 0.0
28/08:30pm 14.0 11.9 11.0 82 1.6 SSE 13 17 7 9 1017.1 1016.6 0.0
28/08:00pm 14.5 12.9 11.5 82 1.6 SSE 11 15 6 8 1017.1 1016.6 0.0
28/07:30pm 15.1 13.5 11.7 80 1.9 SSE 11 13 6 7 1017.0 1016.5 0.0
28/07:00pm 15.7 13.4 11.7 77 2.2 S 15 17 8 9 1016.9 1016.4 0.0
28/06:30pm 17.0 15.0 11.5 70 3.0 S 13 15 7 8 1016.8 1016.3 0.0
28/06:00pm 17.7 15.6 11.3 66 3.5 S 13 15 7 8 1016.8 1016.3 0.0
28/05:30pm 18.2 16.4 11.0 63 4.0 SSE 11 15 6 8 1017.0 1016.5 0.0
28/05:00pm 20.5 18.0 11.2 55 5.2 S 15 17 8 9 1017.3 1016.7 0.0
28/04:30pm 21.4 19.1 10.3 49 6.1 SSE 13 17 7 9 1017.3 1016.7 0.0
28/04:00pm 21.1 18.7 11.4 54 5.5 S 15 20 8 11 1017.4 1016.8 0.0
28/03:30pm 22.1 19.6 10.9 49 6.3 SSE 15 19 8 10 1017.8 1017.3 0.0
28/03:00pm 22.0 20.1 11.7 52 5.8 SSE 13 17 7 9 1018.0 1017.5 0.0
28/02:30pm 21.7 19.8 11.7 53 5.7 S 13 17 7 9 1018.2 1017.7 0.0
28/02:00pm 21.2 19.3 11.8 55 5.3 S 13 17 7 9 1018.5 1018.0 0.0
28/01:30pm 21.3 20.0 12.4 57 5.1 SSE 11 17 6 9 1018.8 1018.3 0.0
28/01:00pm 23.1 21.1 12.7 52 6.0 SSE 15 22 8 12 1018.8 1018.3 0.0
28/12:30pm 23.4 22.1 11.1 46 7.0 SSE 9 13 5 7 1019.0 1018.5 0.0
28/12:00pm 22.1 21.0 11.8 52 5.9 SE 9 15 5 8 1019.4 1018.9 0.0
28/11:30am 22.7 19.8 6.5 35 8.4 ENE 11 17 6 9 1019.5 1019.0 0.0
28/11:00am 21.3 19.3 10.2 49 6.1 ESE 11 17 6 9 1019.9 1019.4 0.0
28/10:30am 20.2 18.4 10.9 55 5.1 SE 11 19 6 10 1020.2 1019.8 0.0
28/10:00am 18.4 16.4 11.5 64 3.8 SE 13 19 7 10 1020.6 1020.1 0.0
28/09:30am 17.3 14.5 11.3 68 3.3 SE 17 22 9 12 1020.8 1020.3 0.0
28/09:00am 16.6 14.3 11.7 73 2.7 ESE 15 22 8 12 1021.0 1020.5 0.0
28/08:30am 15.2 12.5 11.6 79 2.0 ESE 17 20 9 11 1020.9 1020.4 0.0
28/08:00am 13.2 9.5 11.6 90 0.9 SE 22 30 12 16 1020.9 1020.4 0.0
28/07:30am 12.8 9.6 11.9 94 0.5 SE 20 30 11 16 1021.0 1020.5 0.0
28/07:00am 12.6 9.4 12.0 96 0.3 SE 20 28 11 15 1020.8 1020.3 0.0
28/06:30am 12.5 9.3 11.9 96 0.3 SE 20 26 11 14 1021.0 1020.5 0.0
28/06:00am 12.4 8.8 11.8 96 0.3 SE 22 30 12 16 1020.6 1020.1 0.0
28/05:30am 12.5 9.2 11.7 95 0.4 SE 20 28 11 15 1020.5 1020.0 0.0
28/05:00am 12.6 9.4 11.8 95 0.4 SE 20 26 11 14 1020.4 1019.9 0.0
28/04:30am 12.8 8.8 11.9 94 0.5 SSE 24 30 13 16 1020.2 1019.8 0.0
28/04:00am 12.6 9.0 11.7 94 0.5 SSE 22 30 12 16 1020.4 1019.9 0.0
28/03:30am 12.4 9.2 11.8 96 0.3 SSE 20 28 11 15 1020.1 1019.6 0.0
28/03:00am 12.1 8.4 11.5 96 0.3 SSE 22 32 12 17 1020.2 1019.8 0.0
28/02:30am 12.1 9.0 11.6 97 0.3 SSE 19 26 10 14 1020.6 1020.1 0.0
28/02:00am 11.8 8.6 11.3 97 0.3 SSE 19 24 10 13 1020.7 1020.2 0.0
28/01:30am 11.7 8.9 11.2 97 0.3 SSE 17 22 9 12 1021.0 1020.5 0.0
28/01:00am 11.5 8.1 10.7 95 0.4 SSE 19 26 10 14 1021.1 1020.6 0.0
28/12:30am 11.7 7.8 10.8 94 0.5 SSE 22 30 12 16 1021.5 1021.0 0.0
28/12:00am 11.4 8.0 10.5 94 0.5 SE 19 24 10 13 1021.8 1021.3 0.0
 
Date/Time
CDT
Tmp

°C
App
Tmp
°C
Dew
Point
°C
Rel
Hum
%
Delta-T

°C
Wind Press
QNH
hPa
Press
MSL
hPa
Rain
since
9 am
mm
Dir
 
Spd
km/h
Gust
km/h
Spd
kts
Gust
kts
27/11:30pm 11.7 8.1 10.6 93 0.6 SE 20 28 11 15 1021.8 1021.3 0.0
27/11:00pm 11.6 7.1 10.2 91 0.7 SE 24 30 13 16 1022.1 1021.6 0.0
27/10:30pm 11.8 8.2 10.4 91 0.7 SE 20 28 11 15 1022.4 1021.9 0.0
27/10:00pm 11.8 8.2 10.4 91 0.7 SE 20 26 11 14 1022.3 1021.8 0.0
27/09:30pm 11.9 7.0 10.1 89 0.9 SSE 26 32 14 17 1022.2 1021.7 0.0
27/09:00pm 11.8 7.6 9.9 88 1.0 SSE 22 32 12 17 1022.5 1022.0 0.0
27/08:30pm 12.0 7.8 9.7 86 1.2 SE 22 32 12 17 1022.5 1022.0 0.0
27/08:00pm 12.2 8.4 9.8 85 1.2 SSE 20 28 11 15 1022.4 1021.9 0.0
27/07:30pm 12.6 7.9 9.2 80 1.7 SSE 24 35 13 19 1022.4 1021.9 0.0
27/07:00pm 13.1 7.9 9.0 76 2.1 SSE 26 32 14 17 1022.4 1021.9 0.0
27/06:30pm 13.4 7.7 8.5 72 2.5 SSE 28 35 15 19 1022.2 1021.7 0.0
27/06:00pm 13.7 8.8 8.3 70 2.7 SSE 24 33 13 18 1022.3 1021.8 0.0
27/05:30pm 14.2 8.9 8.6 69 2.9 S 26 35 14 19 1022.5 1022.0 0.0
27/05:00pm 14.4 9.2 9.0 70 2.8 SSE 26 33 14 18 1022.6 1022.1 0.0
27/04:30pm 14.6 9.8 9.0 69 2.9 SSE 24 32 13 17 1022.7 1022.2 0.0
27/04:00pm 15.6 11.0 9.7 68 3.1 SSE 24 32 13 17 1022.8 1022.4 0.0
27/03:30pm 15.7 10.7 9.4 66 3.3 SSE 26 33 14 18 1023.0 1022.6 0.0
27/03:00pm 15.8 11.2 9.7 67 3.2 SSE 24 33 13 18 1023.1 1022.7 0.0
27/02:30pm 15.3 10.6 9.2 67 3.2 SSE 24 32 13 17 1023.3 1022.9 0.0
27/02:00pm 16.4 12.3 10.0 66 3.4 SSE 22 32 12 17 1023.7 1023.2 0.0
27/01:30pm 15.7 11.4 9.4 66 3.3 SSE 22 32 12 17 1023.9 1023.4 0.0
27/01:00pm 15.6 11.3 9.5 67 3.2 SSE 22 32 12 17 1024.1 1023.6 0.0
27/12:30pm 15.9 11.7 9.8 67 3.2 SE 22 30 12 16 1024.1 1023.6 0.0
27/12:00pm 14.9 10.1 8.8 67 3.1 SE 24 35 13 19 1024.2 1023.7 0.0
27/11:30am 15.3 10.6 9.4 68 3.1 SE 24 33 13 18 1024.4 1023.9 0.0
27/11:00am 15.5 11.3 9.8 69 3.0 SE 22 32 12 17 1024.6 1024.1 0.0
27/10:30am 14.3 9.3 9.5 73 2.5 ESE 26 32 14 17 1024.7 1024.2 0.0
27/10:00am 14.1 8.6 9.3 73 2.5 SE 28 39 15 21 1024.6 1024.1 0.0
27/09:30am 13.6 8.6 9.6 77 2.1 ESE 26 35 14 19 1024.8 1024.3 0.0
27/09:00am 12.4 7.0 9.6 83 1.4 ESE 28 35 15 19 1025.0 1024.5 0.0
27/08:30am 12.9 8.0 10.1 83 1.5 SE 26 35 14 19 1024.9 1024.4 0.0
27/08:00am 12.2 8.0 9.6 84 1.3 ESE 22 33 12 18 1024.8 1024.3 0.0
27/07:30am 11.9 7.3 9.5 85 1.2 ESE 24 35 13 19 1024.7 1024.2 0.0
27/07:00am 11.7 6.3 9.4 86 1.2 SE 28 35 15 19 1024.2 1023.7 0.0
27/06:30am 11.6 7.0 9.7 88 1.0 ESE 24 33 13 18 1024.0 1023.5 0.0
27/06:00am 11.7 6.4 9.9 89 0.9 SE 28 37 15 20 1023.6 1023.1 0.0
27/05:30am 11.7 6.0 9.9 89 0.9 SE 30 35 16 19 1023.5 1023.0 0.0
27/05:00am 11.7 6.4 9.9 89 0.9 SE 28 37 15 20 1023.2 1022.8 0.0
27/04:30am 11.8 7.0 10.2 90 0.8 SE 26 35 14 19 1023.2 1022.8 0.0
27/04:00am 11.8 6.6 10.2 90 0.8 SE 28 39 15 21 1023.0 1022.6 0.0
27/03:30am 12.0 6.8 10.4 90 0.8 SE 28 37 15 20 1023.1 1022.7 0.0
27/03:00am 12.1 7.8 10.8 92 0.7 SE 24 30 13 16 1023.5 1023.0 0.0
27/02:30am 12.2 7.3 11.3 94 0.5 SE 28 35 15 19 1023.7 1023.2 0.0
27/02:00am 12.1 8.0 11.5 96 0.3 SE 24 33 13 18 1023.7 1023.2 0.0
27/01:30am 12.4 8.3 11.6 95 0.4 SE 24 33 13 18 1024.0 1023.5 0.0
27/01:00am 12.7 9.1 11.8 94 0.5 SE 22 32 12 17 1024.0 1023.5 0.0
27/12:30am 12.5 8.1 11.6 94 0.5 SE 26 33 14 18 1023.9 1023.4 0.0
27/12:00am 12.5 9.0 12.2 98 0.2 SE 22 32 12 17 1024.0 1023.5 0.0
 
Date/Time
CDT
Tmp

°C
App
Tmp
°C
Dew
Point
°C
Rel
Hum
%
Delta-T

°C
Wind Press
QNH
hPa
Press
MSL
hPa
Rain
since
9 am
mm
Dir
 
Spd
km/h
Gust
km/h
Spd
kts
Gust
kts
26/11:30pm 12.2 8.2 11.9 98 0.2 SE 24 32 13 17 1024.1 1023.6 0.0
26/11:00pm 12.3 9.1 12.0 98 0.2 SE 20 26 11 14 1024.4 1023.9 0.0
26/10:30pm 12.5 9.4 11.6 94 0.5 SE 19 26 10 14 1024.4 1023.9 0.0
26/10:00pm 12.8 9.1 11.4 91 0.8 SE 22 30 12 16 1024.2 1023.7 0.0
26/09:30pm 12.9 8.4 11.3 90 0.9 SE 26 35 14 19 1023.8 1023.3 0.0
26/09:00pm 12.9 8.7 11.1 89 1.0 SSE 24 33 13 18 1023.7 1023.2 0.0
26/08:30pm 13.1 8.8 10.6 85 1.3 SSE 24 32 13 17 1023.6 1023.1 0.0
26/08:00pm 13.0 7.4 10.0 82 1.6 SSE 30 41 16 22 1023.2 1022.8 0.0
26/07:30pm 13.2 8.0 10.4 83 1.5 SE 28 39 15 21 1023.1 1022.7 0.0
26/07:00pm 13.4 7.2 10.0 80 1.8 SSE 33 44 18 24 1022.8 1022.4 0.0
26/06:30pm 13.8 7.6 10.0 78 2.0 SSE 33 46 18 25 1022.5 1022.0 0.0
26/06:00pm 13.8 7.5 9.8 77 2.1 SSE 33 44 18 24 1022.3 1021.8 0.0
26/05:30pm 14.7 9.5 10.3 75 2.3 SSE 28 37 15 20 1022.4 1021.9 0.0
26/05:00pm 14.5 9.1 9.5 72 2.6 SSE 28 37 15 20 1022.8 1022.4 0.0
26/04:30pm 14.8 8.6 9.4 70 2.8 SSE 32 43 17 23 1022.7 1022.2 0.0
26/04:00pm 14.1 7.8 8.9 71 2.7 SSE 32 41 17 22 1022.7 1022.2 0.0
26/03:30pm 14.5 8.5 8.7 68 3.0 SSE 30 37 16 20 1022.9 1022.5 0.0
26/03:00pm 15.0 10.0 9.4 69 2.9 SSE 26 37 14 20 1023.2 1022.8 0.0
26/02:30pm 15.5 11.3 9.8 69 3.0 S 22 30 12 16 1023.6 1023.1 0.0
26/02:00pm 16.6 12.9 10.0 65 3.5 SSE 20 28 11 15 1023.8 1023.3 0.0
26/01:30pm 15.5 11.2 9.4 67 3.2 SSE 22 30 12 16 1024.1 1023.6 0.0
26/01:00pm 15.9 12.4 8.6 62 3.8 SSE 17 24 9 13 1024.3 1023.8 0.0
26/12:30pm 14.6 11.0 8.5 67 3.1 SSE 17 20 9 11 1024.5 1024.0 0.0
26/12:00pm 14.4 11.2 8.6 68 3.0 SSE 15 22 8 12 1024.7 1024.2 0.0

Latest Capital City Observations: Canberra | Sydney | Melbourne | Brisbane | Adelaide | Perth | Hobart | Darwin

Other Formats:

Comma delimited format used in spreadsheet applications
http://www.bom.gov.au/fwo/IDS60901/IDS60901.94811.axf

JavaScript Object Notation format (JSON) in row-major order
http://www.bom.gov.au/fwo/IDS60901/IDS60901.94811.json